Asbury, Iowa
Current Conditions -  °F | °C
As of 2:53 PM on Sunday 23 Nov 2014 (Local Time) from KDBQ Reporting Station
Moderate Rain Moderate Rain  
Wind Chill: 43°   Ceiling: 400
Heat Index: 47°   Visibility: 2.5mi
Dew Point: 47°   Wind: 9mph
Humidity: 100%   Direction: 140°SE
Pressure: 29.38"   Gusts: NA
Location:  42.522°N, 90.7782°W
Report Text: KDBQ 232053Z 14008KT 2 1/2SM RA BR BKN004 BKN010 OVC015 08/08 A2938 RMK AO2 SLP952 P0006 60029 T00830083 58024 $
Loading
Personal Weather Stations






























Interactive Weather Map New forecast layout! Learn more

10-Day Weather Forecast

Advertisements
Track Severe Weather on mobile